sensor_id;sensor_type;location;lat;lon;timestamp;temperature;humidity
40638;DHT22;26336;44.696;10.622;2023-06-26T00:01:18;24.10;94.00
40638;DHT22;26336;44.696;10.622;2023-06-26T00:04:25;24.00;94.20
40638;DHT22;26336;44.696;10.622;2023-06-26T00:07:29;23.90;94.40
40638;DHT22;26336;44.696;10.622;2023-06-26T00:10:34;24.00;94.30
40638;DHT22;26336;44.696;10.622;2023-06-26T00:13:37;23.90;93.90
40638;DHT22;26336;44.696;10.622;2023-06-26T00:16:40;23.80;94.00
40638;DHT22;26336;44.696;10.622;2023-06-26T00:19:46;23.90;94.20
40638;DHT22;26336;44.696;10.622;2023-06-26T00:22:50;23.90;94.20
40638;DHT22;26336;44.696;10.622;2023-06-26T00:25:53;24.00;94.20
40638;DHT22;26336;44.696;10.622;2023-06-26T00:28:57;23.90;94.20
40638;DHT22;26336;44.696;10.622;2023-06-26T00:32:00;23.80;94.20
40638;DHT22;26336;44.696;10.622;2023-06-26T00:35:04;23.90;94.30
40638;DHT22;26336;44.696;10.622;2023-06-26T00:38:08;23.80;94.30
40638;DHT22;26336;44.696;10.622;2023-06-26T00:41:15;23.70;94.50
40638;DHT22;26336;44.696;10.622;2023-06-26T00:44:18;23.60;94.70
40638;DHT22;26336;44.696;10.622;2023-06-26T00:47:22;23.60;94.80
40638;DHT22;26336;44.696;10.622;2023-06-26T00:50:27;23.60;94.80
40638;DHT22;26336;44.696;10.622;2023-06-26T00:53:31;23.60;94.80
40638;DHT22;26336;44.696;10.622;2023-06-26T00:56:35;23.70;94.80
40638;DHT22;26336;44.696;10.622;2023-06-26T00:59:43;23.70;94.70
40638;DHT22;26336;44.696;10.622;2023-06-26T01:02:47;23.70;94.70
40638;DHT22;26336;44.696;10.622;2023-06-26T01:05:53;23.60;94.70
40638;DHT22;26336;44.696;10.622;2023-06-26T01:08:58;23.50;94.70
40638;DHT22;26336;44.696;10.622;2023-06-26T01:12:02;23.50;94.90
40638;DHT22;26336;44.696;10.622;2023-06-26T01:15:06;23.50;95.00
40638;DHT22;26336;44.696;10.622;2023-06-26T01:18:11;23.50;95.00
40638;DHT22;26336;44.696;10.622;2023-06-26T01:21:15;23.50;95.10
40638;DHT22;26336;44.696;10.622;2023-06-26T01:24:19;23.50;95.10
40638;DHT22;26336;44.696;10.622;2023-06-26T01:27:30;23.50;95.10
40638;DHT22;26336;44.696;10.622;2023-06-26T01:30:38;23.50;95.00
40638;DHT22;26336;44.696;10.622;2023-06-26T01:33:43;23.50;94.90
40638;DHT22;26336;44.696;10.622;2023-06-26T01:36:47;23.60;94.90
40638;DHT22;26336;44.696;10.622;2023-06-26T01:39:50;23.50;95.00
40638;DHT22;26336;44.696;10.622;2023-06-26T01:42:55;23.50;95.10
40638;DHT22;26336;44.696;10.622;2023-06-26T01:46:11;23.50;95.30
40638;DHT22;26336;44.696;10.622;2023-06-26T01:58:40;23.40;95.40
40638;DHT22;26336;44.696;10.622;2023-06-26T02:01:46;23.40;95.40
40638;DHT22;26336;44.696;10.622;2023-06-26T02:04:50;23.40;95.40
40638;DHT22;26336;44.696;10.622;2023-06-26T02:07:54;23.40;95.60
40638;DHT22;26336;44.696;10.622;2023-06-26T02:10:58;23.40;95.60
40638;DHT22;26336;44.696;10.622;2023-06-26T02:14:02;23.30;95.50
40638;DHT22;26336;44.696;10.622;2023-06-26T02:17:05;23.30;95.70
40638;DHT22;26336;44.696;10.622;2023-06-26T02:20:10;23.20;95.80
40638;DHT22;26336;44.696;10.622;2023-06-26T02:23:14;23.20;95.80
40638;DHT22;26336;44.696;10.622;2023-06-26T02:26:18;23.20;95.90
40638;DHT22;26336;44.696;10.622;2023-06-26T02:29:22;23.20;96.00
40638;DHT22;26336;44.696;10.622;2023-06-26T02:32:25;23.10;96.20
40638;DHT22;26336;44.696;10.622;2023-06-26T02:35:29;23.00;96.30
40638;DHT22;26336;44.696;10.622;2023-06-26T02:38:33;23.00;96.50
40638;DHT22;26336;44.696;10.622;2023-06-26T02:41:39;23.00;96.40
40638;DHT22;26336;44.696;10.622;2023-06-26T02:44:43;22.90;96.70
40638;DHT22;26336;44.696;10.622;2023-06-26T02:47:47;22.80;96.70
40638;DHT22;26336;44.696;10.622;2023-06-26T02:50:51;22.70;96.80
40638;DHT22;26336;44.696;10.622;2023-06-26T02:53:57;22.70;96.90
40638;DHT22;26336;44.696;10.622;2023-06-26T02:57:01;22.70;97.10
40638;DHT22;26336;44.696;10.622;2023-06-26T03:00:07;22.70;97.20
40638;DHT22;26336;44.696;10.622;2023-06-26T03:03:16;22.70;97.20
40638;DHT22;26336;44.696;10.622;2023-06-26T03:06:19;22.70;97.10
40638;DHT22;26336;44.696;10.622;2023-06-26T03:09:23;22.70;97.10
40638;DHT22;26336;44.696;10.622;2023-06-26T03:12:27;22.80;97.10
40638;DHT22;26336;44.696;10.622;2023-06-26T03:15:31;22.80;97.20
40638;DHT22;26336;44.696;10.622;2023-06-26T03:18:35;22.80;97.40
40638;DHT22;26336;44.696;10.622;2023-06-26T03:21:39;22.80;97.30
40638;DHT22;26336;44.696;10.622;2023-06-26T03:24:43;22.70;97.40
40638;DHT22;26336;44.696;10.622;2023-06-26T03:27:48;22.60;97.60
40638;DHT22;26336;44.696;10.622;2023-06-26T03:30:53;22.50;97.80
40638;DHT22;26336;44.696;10.622;2023-06-26T03:33:57;22.60;97.90
40638;DHT22;26336;44.696;10.622;2023-06-26T03:37:02;22.60;97.90
40638;DHT22;26336;44.696;10.622;2023-06-26T03:40:06;22.60;98.00
40638;DHT22;26336;44.696;10.622;2023-06-26T03:43:10;22.60;98.00
40638;DHT22;26336;44.696;10.622;2023-06-26T03:46:35;22.60;98.10
40638;DHT22;26336;44.696;10.622;2023-06-26T03:49:38;22.60;98.10
40638;DHT22;26336;44.696;10.622;2023-06-26T03:52:42;22.60;98.20
40638;DHT22;26336;44.696;10.622;2023-06-26T03:55:49;22.50;98.10
40638;DHT22;26336;44.696;10.622;2023-06-26T03:58:53;22.50;98.20
40638;DHT22;26336;44.696;10.622;2023-06-26T04:01:57;22.50;98.20
40638;DHT22;26336;44.696;10.622;2023-06-26T04:05:01;22.50;98.30
40638;DHT22;26336;44.696;10.622;2023-06-26T04:08:04;22.50;98.70
40638;DHT22;26336;44.696;10.622;2023-06-26T04:11:08;22.50;98.40
40638;DHT22;26336;44.696;10.622;2023-06-26T04:14:11;22.50;98.40
40638;DHT22;26336;44.696;10.622;2023-06-26T04:17:16;22.50;98.50
40638;DHT22;26336;44.696;10.622;2023-06-26T04:20:19;22.50;98.50
40638;DHT22;26336;44.696;10.622;2023-06-26T04:23:23;22.50;98.70
40638;DHT22;26336;44.696;10.622;2023-06-26T04:26:26;22.50;98.60
40638;DHT22;26336;44.696;10.622;2023-06-26T04:29:31;22.50;98.60
40638;DHT22;26336;44.696;10.622;2023-06-26T04:32:35;22.60;98.60
40638;DHT22;26336;44.696;10.622;2023-06-26T04:35:38;22.60;98.60
40638;DHT22;26336;44.696;10.622;2023-06-26T04:38:42;22.60;98.60
40638;DHT22;26336;44.696;10.622;2023-06-26T04:41:46;22.60;98.70
40638;DHT22;26336;44.696;10.622;2023-06-26T04:44:49;22.60;98.60
40638;DHT22;26336;44.696;10.622;2023-06-26T04:47:53;22.60;98.50
40638;DHT22;26336;44.696;10.622;2023-06-26T04:50:57;22.60;98.40
40638;DHT22;26336;44.696;10.622;2023-06-26T04:54:02;22.60;98.40
40638;DHT22;26336;44.696;10.622;2023-06-26T04:57:05;22.60;98.40
40638;DHT22;26336;44.696;10.622;2023-06-26T05:00:09;22.60;98.40
40638;DHT22;26336;44.696;10.622;2023-06-26T05:03:15;22.60;98.40
40638;DHT22;26336;44.696;10.622;2023-06-26T05:06:20;22.60;98.50
40638;DHT22;26336;44.696;10.622;2023-06-26T05:09:24;22.50;98.50
40638;DHT22;26336;44.696;10.622;2023-06-26T05:12:27;22.60;98.90
40638;DHT22;26336;44.696;10.622;2023-06-26T05:15:31;22.50;98.80
40638;DHT22;26336;44.696;10.622;2023-06-26T05:18:36;22.50;98.80
40638;DHT22;26336;44.696;10.622;2023-06-26T05:21:39;22.60;99.10
40638;DHT22;26336;44.696;10.622;2023-06-26T05:24:44;22.60;99.20
40638;DHT22;26336;44.696;10.622;2023-06-26T05:27:50;22.60;99.10
40638;DHT22;26336;44.696;10.622;2023-06-26T05:30:54;22.60;99.10
40638;DHT22;26336;44.696;10.622;2023-06-26T05:33:58;22.60;99.20
40638;DHT22;26336;44.696;10.622;2023-06-26T05:37:03;22.60;99.30
40638;DHT22;26336;44.696;10.622;2023-06-26T05:40:07;22.60;99.20
40638;DHT22;26336;44.696;10.622;2023-06-26T05:43:12;22.70;99.10
40638;DHT22;26336;44.696;10.622;2023-06-26T05:46:16;22.70;98.90
40638;DHT22;26336;44.696;10.622;2023-06-26T05:49:20;22.70;99.00
40638;DHT22;26336;44.696;10.622;2023-06-26T05:52:23;22.70;99.00
40638;DHT22;26336;44.696;10.622;2023-06-26T05:55:27;22.70;99.10
40638;DHT22;26336;44.696;10.622;2023-06-26T05:58:32;22.70;99.10
40638;DHT22;26336;44.696;10.622;2023-06-26T06:01:36;22.80;99.00
40638;DHT22;26336;44.696;10.622;2023-06-26T06:04:40;22.80;98.70
40638;DHT22;26336;44.696;10.622;2023-06-26T06:07:43;22.80;98.70
40638;DHT22;26336;44.696;10.622;2023-06-26T06:10:47;22.90;98.80
40638;DHT22;26336;44.696;10.622;2023-06-26T06:13:50;22.90;99.10
40638;DHT22;26336;44.696;10.622;2023-06-26T06:16:53;22.90;99.20
40638;DHT22;26336;44.696;10.622;2023-06-26T06:19:58;23.00;99.20
40638;DHT22;26336;44.696;10.622;2023-06-26T06:23:02;23.00;99.10
40638;DHT22;26336;44.696;10.622;2023-06-26T06:26:06;23.00;99.30
40638;DHT22;26336;44.696;10.622;2023-06-26T06:29:09;23.10;99.10
40638;DHT22;26336;44.696;10.622;2023-06-26T06:32:12;23.10;98.80
40638;DHT22;26336;44.696;10.622;2023-06-26T06:35:17;23.20;98.80
40638;DHT22;26336;44.696;10.622;2023-06-26T06:38:21;23.20;98.50
40638;DHT22;26336;44.696;10.622;2023-06-26T06:41:25;23.30;98.30
40638;DHT22;26336;44.696;10.622;2023-06-26T06:44:29;23.30;98.40
40638;DHT22;26336;44.696;10.622;2023-06-26T06:47:33;23.40;98.20
40638;DHT22;26336;44.696;10.622;2023-06-26T06:50:38;23.40;98.20
40638;DHT22;26336;44.696;10.622;2023-06-26T06:53:41;23.50;98.20
40638;DHT22;26336;44.696;10.622;2023-06-26T06:56:44;23.50;98.30
40638;DHT22;26336;44.696;10.622;2023-06-26T06:59:48;23.60;98.10
40638;DHT22;26336;44.696;10.622;2023-06-26T07:02:52;23.70;98.10
40638;DHT22;26336;44.696;10.622;2023-06-26T07:05:56;23.70;98.30
40638;DHT22;26336;44.696;10.622;2023-06-26T07:09:00;23.80;98.30
40638;DHT22;26336;44.696;10.622;2023-06-26T07:12:04;23.80;98.30
40638;DHT22;26336;44.696;10.622;2023-06-26T07:15:08;23.90;98.60
40638;DHT22;26336;44.696;10.622;2023-06-26T07:18:11;23.90;98.40
40638;DHT22;26336;44.696;10.622;2023-06-26T07:21:15;24.00;98.30
40638;DHT22;26336;44.696;10.622;2023-06-26T07:24:19;24.00;98.50
40638;DHT22;26336;44.696;10.622;2023-06-26T07:27:22;24.10;98.90
40638;DHT22;26336;44.696;10.622;2023-06-26T07:30:26;24.10;99.00
40638;DHT22;26336;44.696;10.622;2023-06-26T07:33:29;24.20;98.90
40638;DHT22;26336;44.696;10.622;2023-06-26T07:36:33;24.20;98.70
40638;DHT22;26336;44.696;10.622;2023-06-26T07:39:36;24.30;98.50
40638;DHT22;26336;44.696;10.622;2023-06-26T07:42:40;24.30;98.50
40638;DHT22;26336;44.696;10.622;2023-06-26T07:45:44;24.30;97.90
40638;DHT22;26336;44.696;10.622;2023-06-26T07:48:48;24.40;97.90
40638;DHT22;26336;44.696;10.622;2023-06-26T07:51:52;24.40;97.30
40638;DHT22;26336;44.696;10.622;2023-06-26T07:54:56;24.40;97.30
40638;DHT22;26336;44.696;10.622;2023-06-26T07:58:00;24.50;96.90
40638;DHT22;26336;44.696;10.622;2023-06-26T08:01:05;24.50;96.50
40638;DHT22;26336;44.696;10.622;2023-06-26T08:04:08;24.60;96.80
40638;DHT22;26336;44.696;10.622;2023-06-26T08:07:14;24.60;96.20
40638;DHT22;26336;44.696;10.622;2023-06-26T08:10:18;24.60;96.40
40638;DHT22;26336;44.696;10.622;2023-06-26T08:13:22;24.70;96.10
40638;DHT22;26336;44.696;10.622;2023-06-26T08:16:26;24.80;95.60
40638;DHT22;26336;44.696;10.622;2023-06-26T08:19:29;24.90;95.80
40638;DHT22;26336;44.696;10.622;2023-06-26T08:22:33;24.90;96.40
40638;DHT22;26336;44.696;10.622;2023-06-26T08:25:37;25.00;96.00
40638;DHT22;26336;44.696;10.622;2023-06-26T08:28:41;25.00;95.50
40638;DHT22;26336;44.696;10.622;2023-06-26T08:31:44;25.00;94.30
40638;DHT22;26336;44.696;10.622;2023-06-26T08:34:49;25.20;96.20
40638;DHT22;26336;44.696;10.622;2023-06-26T08:37:54;25.20;96.80
40638;DHT22;26336;44.696;10.622;2023-06-26T08:40:58;25.30;96.70
40638;DHT22;26336;44.696;10.622;2023-06-26T08:44:02;25.60;97.00
40638;DHT22;26336;44.696;10.622;2023-06-26T08:47:06;25.70;96.60
40638;DHT22;26336;44.696;10.622;2023-06-26T08:50:10;25.80;96.00
40638;DHT22;26336;44.696;10.622;2023-06-26T08:56:40;25.80;95.50
40638;DHT22;26336;44.696;10.622;2023-06-26T08:59:45;25.80;95.60
40638;DHT22;26336;44.696;10.622;2023-06-26T09:02:50;25.80;95.60
40638;DHT22;26336;44.696;10.622;2023-06-26T09:05:54;25.90;95.60
40638;DHT22;26336;44.696;10.622;2023-06-26T09:08:58;26.00;95.80
40638;DHT22;26336;44.696;10.622;2023-06-26T09:12:03;26.30;94.70
40638;DHT22;26336;44.696;10.622;2023-06-26T09:15:07;26.20;95.00
40638;DHT22;26336;44.696;10.622;2023-06-26T09:18:11;26.30;94.60
40638;DHT22;26336;44.696;10.622;2023-06-26T09:21:15;26.30;94.60
40638;DHT22;26336;44.696;10.622;2023-06-26T09:24:18;26.50;94.70
40638;DHT22;26336;44.696;10.622;2023-06-26T09:27:23;26.60;93.80
40638;DHT22;26336;44.696;10.622;2023-06-26T09:30:27;26.60;94.10
40638;DHT22;26336;44.696;10.622;2023-06-26T09:33:34;26.50;93.80
40638;DHT22;26336;44.696;10.622;2023-06-26T09:36:41;26.70;93.10
40638;DHT22;26336;44.696;10.622;2023-06-26T09:39:50;26.90;92.40
40638;DHT22;26336;44.696;10.622;2023-06-26T09:42:53;26.90;93.30
40638;DHT22;26336;44.696;10.622;2023-06-26T09:46:05;27.00;92.80
40638;DHT22;26336;44.696;10.622;2023-06-26T09:49:10;26.90;92.40
40638;DHT22;26336;44.696;10.622;2023-06-26T09:52:15;27.00;92.10
40638;DHT22;26336;44.696;10.622;2023-06-26T09:55:20;27.10;92.70
40638;DHT22;26336;44.696;10.622;2023-06-26T09:58:25;27.10;92.80
40638;DHT22;26336;44.696;10.622;2023-06-26T10:01:31;27.20;91.60
40638;DHT22;26336;44.696;10.622;2023-06-26T10:04:35;27.20;91.60
40638;DHT22;26336;44.696;10.622;2023-06-26T10:07:38;27.40;91.20
40638;DHT22;26336;44.696;10.622;2023-06-26T10:10:42;27.40;92.10
40638;DHT22;26336;44.696;10.622;2023-06-26T10:13:47;27.60;91.00
40638;DHT22;26336;44.696;10.622;2023-06-26T10:16:52;27.70;90.60
40638;DHT22;26336;44.696;10.622;2023-06-26T10:20:01;27.70;89.70
40638;DHT22;26336;44.696;10.622;2023-06-26T10:23:06;27.90;90.50
40638;DHT22;26336;44.696;10.622;2023-06-26T10:26:10;28.00;90.50
40638;DHT22;26336;44.696;10.622;2023-06-26T10:29:15;27.90;88.30
40638;DHT22;26336;44.696;10.622;2023-06-26T10:32:21;27.80;89.70
40638;DHT22;26336;44.696;10.622;2023-06-26T10:35:27;27.80;90.80
40638;DHT22;26336;44.696;10.622;2023-06-26T10:38:47;27.70;90.80
40638;DHT22;26336;44.696;10.622;2023-06-26T10:41:51;27.70;90.20
40638;DHT22;26336;44.696;10.622;2023-06-26T10:44:57;27.70;90.40
40638;DHT22;26336;44.696;10.622;2023-06-26T10:48:14;27.60;90.50
40638;DHT22;26336;44.696;10.622;2023-06-26T10:51:17;27.70;91.10
40638;DHT22;26336;44.696;10.622;2023-06-26T10:54:22;28.10;89.20
40638;DHT22;26336;44.696;10.622;2023-06-26T10:57:26;28.20;89.10
40638;DHT22;26336;44.696;10.622;2023-06-26T11:00:30;28.30;88.90
40638;DHT22;26336;44.696;10.622;2023-06-26T11:03:33;28.20;89.10
40638;DHT22;26336;44.696;10.622;2023-06-26T11:06:37;28.20;87.80
40638;DHT22;26336;44.696;10.622;2023-06-26T11:09:58;28.20;87.10
40638;DHT22;26336;44.696;10.622;2023-06-26T11:13:03;28.10;87.80
40638;DHT22;26336;44.696;10.622;2023-06-26T11:16:07;28.10;89.30
40638;DHT22;26336;44.696;10.622;2023-06-26T11:19:12;28.00;88.70
40638;DHT22;26336;44.696;10.622;2023-06-26T11:22:16;28.00;89.20
40638;DHT22;26336;44.696;10.622;2023-06-26T11:25:20;28.00;88.60
40638;DHT22;26336;44.696;10.622;2023-06-26T11:28:25;28.10;90.00
40638;DHT22;26336;44.696;10.622;2023-06-26T11:31:29;28.20;88.10
40638;DHT22;26336;44.696;10.622;2023-06-26T11:34:35;28.30;88.60
40638;DHT22;26336;44.696;10.622;2023-06-26T11:37:39;28.50;88.50
40638;DHT22;26336;44.696;10.622;2023-06-26T11:40:43;28.50;89.50
40638;DHT22;26336;44.696;10.622;2023-06-26T11:43:47;28.50;87.40
40638;DHT22;26336;44.696;10.622;2023-06-26T11:46:51;28.60;88.60
40638;DHT22;26336;44.696;10.622;2023-06-26T11:49:55;28.50;89.50
40638;DHT22;26336;44.696;10.622;2023-06-26T11:52:59;28.40;87.30
40638;DHT22;26336;44.696;10.622;2023-06-26T11:56:07;28.30;81.20
40638;DHT22;26336;44.696;10.622;2023-06-26T11:59:11;28.40;81.40
40638;DHT22;26336;44.696;10.622;2023-06-26T12:02:15;28.40;82.60
40638;DHT22;26336;44.696;10.622;2023-06-26T12:05:19;28.50;84.50
40638;DHT22;26336;44.696;10.622;2023-06-26T12:08:23;28.50;86.20
40638;DHT22;26336;44.696;10.622;2023-06-26T12:11:27;28.50;82.70
40638;DHT22;26336;44.696;10.622;2023-06-26T12:14:33;28.60;82.30
40638;DHT22;26336;44.696;10.622;2023-06-26T12:17:37;28.60;82.20
40638;DHT22;26336;44.696;10.622;2023-06-26T12:20:44;28.50;83.70
40638;DHT22;26336;44.696;10.622;2023-06-26T12:23:48;28.50;77.10
40638;DHT22;26336;44.696;10.622;2023-06-26T12:26:53;28.50;81.60
40638;DHT22;26336;44.696;10.622;2023-06-26T12:29:57;28.40;80.90
40638;DHT22;26336;44.696;10.622;2023-06-26T12:33:00;28.40;83.30
40638;DHT22;26336;44.696;10.622;2023-06-26T12:36:04;28.40;82.90
40638;DHT22;26336;44.696;10.622;2023-06-26T12:39:09;28.50;79.30
40638;DHT22;26336;44.696;10.622;2023-06-26T12:42:14;28.50;82.20
40638;DHT22;26336;44.696;10.622;2023-06-26T12:45:18;28.50;82.90
40638;DHT22;26336;44.696;10.622;2023-06-26T12:48:39;28.60;79.20
40638;DHT22;26336;44.696;10.622;2023-06-26T12:51:50;28.70;79.00
40638;DHT22;26336;44.696;10.622;2023-06-26T12:54:55;28.80;79.10
40638;DHT22;26336;44.696;10.622;2023-06-26T12:57:59;28.90;77.50
40638;DHT22;26336;44.696;10.622;2023-06-26T13:01:03;29.00;77.60
40638;DHT22;26336;44.696;10.622;2023-06-26T13:04:07;29.10;81.00
40638;DHT22;26336;44.696;10.622;2023-06-26T13:07:12;29.10;80.50
40638;DHT22;26336;44.696;10.622;2023-06-26T13:10:16;29.00;80.20
40638;DHT22;26336;44.696;10.622;2023-06-26T13:13:20;29.00;79.50
40638;DHT22;26336;44.696;10.622;2023-06-26T13:16:25;29.00;80.90
40638;DHT22;26336;44.696;10.622;2023-06-26T13:19:29;29.00;81.90
40638;DHT22;26336;44.696;10.622;2023-06-26T13:22:33;29.00;80.40
40638;DHT22;26336;44.696;10.622;2023-06-26T13:25:37;28.90;80.90
40638;DHT22;26336;44.696;10.622;2023-06-26T13:28:40;28.90;81.00
40638;DHT22;26336;44.696;10.622;2023-06-26T13:31:44;28.90;80.90
40638;DHT22;26336;44.696;10.622;2023-06-26T13:34:48;28.90;81.70
40638;DHT22;26336;44.696;10.622;2023-06-26T13:37:52;29.00;80.50
40638;DHT22;26336;44.696;10.622;2023-06-26T13:40:55;29.00;81.10
40638;DHT22;26336;44.696;10.622;2023-06-26T13:44:03;29.00;81.30
40638;DHT22;26336;44.696;10.622;2023-06-26T13:47:07;29.00;79.30
40638;DHT22;26336;44.696;10.622;2023-06-26T13:50:11;29.00;81.80
40638;DHT22;26336;44.696;10.622;2023-06-26T13:53:15;29.00;81.00
40638;DHT22;26336;44.696;10.622;2023-06-26T13:56:20;29.00;80.70
40638;DHT22;26336;44.696;10.622;2023-06-26T13:59:26;29.00;81.30
40638;DHT22;26336;44.696;10.622;2023-06-26T14:02:30;29.00;79.90
40638;DHT22;26336;44.696;10.622;2023-06-26T14:05:37;29.10;81.40
40638;DHT22;26336;44.696;10.622;2023-06-26T14:08:49;29.00;81.00
40638;DHT22;26336;44.696;10.622;2023-06-26T14:12:00;29.10;79.30
40638;DHT22;26336;44.696;10.622;2023-06-26T14:15:04;29.30;80.10
40638;DHT22;26336;44.696;10.622;2023-06-26T14:18:08;29.40;81.50
40638;DHT22;26336;44.696;10.622;2023-06-26T14:21:12;29.30;81.10
40638;DHT22;26336;44.696;10.622;2023-06-26T14:24:15;29.20;80.50
40638;DHT22;26336;44.696;10.622;2023-06-26T14:27:19;29.30;78.30
40638;DHT22;26336;44.696;10.622;2023-06-26T14:30:22;29.30;80.90
40638;DHT22;26336;44.696;10.622;2023-06-26T14:33:26;29.30;81.30
40638;DHT22;26336;44.696;10.622;2023-06-26T14:36:30;29.20;80.60
40638;DHT22;26336;44.696;10.622;2023-06-26T14:39:35;29.20;80.60
40638;DHT22;26336;44.696;10.622;2023-06-26T14:42:39;29.10;79.40
40638;DHT22;26336;44.696;10.622;2023-06-26T14:45:43;29.20;79.90
40638;DHT22;26336;44.696;10.622;2023-06-26T14:48:48;29.10;80.60
40638;DHT22;26336;44.696;10.622;2023-06-26T14:51:52;29.10;79.50
40638;DHT22;26336;44.696;10.622;2023-06-26T14:54:56;29.10;78.20
40638;DHT22;26336;44.696;10.622;2023-06-26T14:58:00;29.20;80.50
40638;DHT22;26336;44.696;10.622;2023-06-26T15:01:04;29.20;77.00
40638;DHT22;26336;44.696;10.622;2023-06-26T15:04:08;29.30;77.50
40638;DHT22;26336;44.696;10.622;2023-06-26T15:07:19;29.30;79.00
40638;DHT22;26336;44.696;10.622;2023-06-26T15:10:22;29.20;79.70
40638;DHT22;26336;44.696;10.622;2023-06-26T15:13:26;29.20;80.30
40638;DHT22;26336;44.696;10.622;2023-06-26T15:16:30;29.10;79.90
40638;DHT22;26336;44.696;10.622;2023-06-26T15:19:34;29.10;79.50
40638;DHT22;26336;44.696;10.622;2023-06-26T15:22:38;29.10;80.90
40638;DHT22;26336;44.696;10.622;2023-06-26T15:25:44;29.10;80.20
40638;DHT22;26336;44.696;10.622;2023-06-26T15:28:49;29.20;80.00
40638;DHT22;26336;44.696;10.622;2023-06-26T15:31:53;29.30;78.30
40638;DHT22;26336;44.696;10.622;2023-06-26T15:34:57;29.30;80.40
40638;DHT22;26336;44.696;10.622;2023-06-26T15:38:01;29.40;79.30
40638;DHT22;26336;44.696;10.622;2023-06-26T15:41:05;29.50;79.30
40638;DHT22;26336;44.696;10.622;2023-06-26T15:44:09;29.50;81.20
40638;DHT22;26336;44.696;10.622;2023-06-26T15:47:13;29.60;80.80
40638;DHT22;26336;44.696;10.622;2023-06-26T15:50:16;29.60;80.70
40638;DHT22;26336;44.696;10.622;2023-06-26T15:53:21;29.50;80.60
40638;DHT22;26336;44.696;10.622;2023-06-26T15:56:36;29.50;80.80
40638;DHT22;26336;44.696;10.622;2023-06-26T15:59:40;29.50;80.80
40638;DHT22;26336;44.696;10.622;2023-06-26T16:02:44;29.60;81.50
40638;DHT22;26336;44.696;10.622;2023-06-26T16:05:47;29.60;81.70
40638;DHT22;26336;44.696;10.622;2023-06-26T16:08:51;29.70;81.30
40638;DHT22;26336;44.696;10.622;2023-06-26T16:11:56;29.60;81.40
40638;DHT22;26336;44.696;10.622;2023-06-26T16:15:00;29.60;82.20
40638;DHT22;26336;44.696;10.622;2023-06-26T16:18:04;29.60;82.40
40638;DHT22;26336;44.696;10.622;2023-06-26T16:21:08;29.60;81.80
40638;DHT22;26336;44.696;10.622;2023-06-26T16:24:12;29.50;82.40
40638;DHT22;26336;44.696;10.622;2023-06-26T16:27:16;29.50;81.90
40638;DHT22;26336;44.696;10.622;2023-06-26T16:30:19;29.50;82.20
40638;DHT22;26336;44.696;10.622;2023-06-26T16:33:23;29.50;81.70
40638;DHT22;26336;44.696;10.622;2023-06-26T16:36:27;29.50;83.20
40638;DHT22;26336;44.696;10.622;2023-06-26T16:39:31;29.60;83.00
40638;DHT22;26336;44.696;10.622;2023-06-26T16:42:34;29.60;83.70
40638;DHT22;26336;44.696;10.622;2023-06-26T16:45:38;29.80;83.50
40638;DHT22;26336;44.696;10.622;2023-06-26T16:48:41;29.80;83.80
40638;DHT22;26336;44.696;10.622;2023-06-26T16:51:45;29.90;83.40
40638;DHT22;26336;44.696;10.622;2023-06-26T16:54:49;29.90;83.00
40638;DHT22;26336;44.696;10.622;2023-06-26T16:57:53;29.90;83.00
40638;DHT22;26336;44.696;10.622;2023-06-26T17:00:57;29.80;83.60
40638;DHT22;26336;44.696;10.622;2023-06-26T17:04:01;29.80;82.40
40638;DHT22;26336;44.696;10.622;2023-06-26T17:07:04;29.80;83.40
40638;DHT22;26336;44.696;10.622;2023-06-26T17:10:08;29.70;83.80
40638;DHT22;26336;44.696;10.622;2023-06-26T17:13:12;29.60;83.90
40638;DHT22;26336;44.696;10.622;2023-06-26T17:16:16;29.50;84.10
40638;DHT22;26336;44.696;10.622;2023-06-26T17:19:19;29.60;82.50
40638;DHT22;26336;44.696;10.622;2023-06-26T17:22:23;29.90;82.40
40638;DHT22;26336;44.696;10.622;2023-06-26T17:25:27;30.00;82.50
40638;DHT22;26336;44.696;10.622;2023-06-26T17:28:31;29.90;82.20
40638;DHT22;26336;44.696;10.622;2023-06-26T17:31:35;30.00;82.50
40638;DHT22;26336;44.696;10.622;2023-06-26T17:34:39;29.90;82.30
40638;DHT22;26336;44.696;10.622;2023-06-26T17:37:43;30.00;81.40
40638;DHT22;26336;44.696;10.622;2023-06-26T17:40:48;29.90;81.50
40638;DHT22;26336;44.696;10.622;2023-06-26T17:43:51;29.90;81.80
40638;DHT22;26336;44.696;10.622;2023-06-26T17:46:55;29.90;81.30
40638;DHT22;26336;44.696;10.622;2023-06-26T17:50:00;29.90;81.00
40638;DHT22;26336;44.696;10.622;2023-06-26T17:53:04;29.90;81.00
40638;DHT22;26336;44.696;10.622;2023-06-26T17:56:10;29.90;81.20
40638;DHT22;26336;44.696;10.622;2023-06-26T17:59:14;30.00;80.90
40638;DHT22;26336;44.696;10.622;2023-06-26T18:02:18;30.00;80.50
40638;DHT22;26336;44.696;10.622;2023-06-26T18:05:22;30.00;81.10
40638;DHT22;26336;44.696;10.622;2023-06-26T18:08:27;30.10;80.10
40638;DHT22;26336;44.696;10.622;2023-06-26T18:11:32;30.20;79.20
40638;DHT22;26336;44.696;10.622;2023-06-26T18:14:36;30.10;78.80
40638;DHT22;26336;44.696;10.622;2023-06-26T18:17:40;30.10;78.00
40638;DHT22;26336;44.696;10.622;2023-06-26T18:20:44;30.20;78.00
40638;DHT22;26336;44.696;10.622;2023-06-26T18:23:49;30.20;77.90
40638;DHT22;26336;44.696;10.622;2023-06-26T18:26:53;30.10;78.30
40638;DHT22;26336;44.696;10.622;2023-06-26T18:29:57;30.10;77.90
40638;DHT22;26336;44.696;10.622;2023-06-26T18:33:01;30.00;78.30
40638;DHT22;26336;44.696;10.622;2023-06-26T18:36:05;29.90;78.70
40638;DHT22;26336;44.696;10.622;2023-06-26T18:39:11;29.80;78.30
40638;DHT22;26336;44.696;10.622;2023-06-26T18:42:16;29.80;78.50
40638;DHT22;26336;44.696;10.622;2023-06-26T18:45:19;29.70;79.00
40638;DHT22;26336;44.696;10.622;2023-06-26T18:48:23;29.70;78.60
40638;DHT22;26336;44.696;10.622;2023-06-26T18:51:28;29.60;78.70
40638;DHT22;26336;44.696;10.622;2023-06-26T18:54:32;29.50;79.40
40638;DHT22;26336;44.696;10.622;2023-06-26T18:57:36;29.40;79.60
40638;DHT22;26336;44.696;10.622;2023-06-26T19:00:40;29.30;79.30
40638;DHT22;26336;44.696;10.622;2023-06-26T19:03:43;29.30;79.70
40638;DHT22;26336;44.696;10.622;2023-06-26T19:06:47;29.20;80.20
40638;DHT22;26336;44.696;10.622;2023-06-26T19:09:51;29.20;80.80
40638;DHT22;26336;44.696;10.622;2023-06-26T19:12:54;29.10;81.40
40638;DHT22;26336;44.696;10.622;2023-06-26T19:15:59;29.00;81.90
40638;DHT22;26336;44.696;10.622;2023-06-26T19:19:04;29.00;83.10